sensor_id;sensor_type;location;lat;lon;timestamp;pressure;altitude;pressure_sealevel;temperature;humidity
78337;BME280;67610;51.588;7.002;2023-03-01T00:01:12;102332.44;;;2.08;52.68
78337;BME280;67610;51.588;7.002;2023-03-01T00:03:38;102325.66;;;2.04;52.87
78337;BME280;67610;51.588;7.002;2023-03-01T00:06:04;102332.78;;;1.99;53.15
78337;BME280;67610;51.588;7.002;2023-03-01T00:08:30;102321.59;;;1.97;53.06
78337;BME280;67610;51.588;7.002;2023-03-01T00:13:48;102319.13;;;1.94;53.03
78337;BME280;67610;51.588;7.002;2023-03-01T00:16:16;102315.69;;;1.94;53.09
78337;BME280;67610;51.588;7.002;2023-03-01T00:18:42;102316.50;;;1.94;52.95
78337;BME280;67610;51.588;7.002;2023-03-01T00:21:08;102312.16;;;1.96;52.98
78337;BME280;67610;51.588;7.002;2023-03-01T00:23:34;102314.84;;;1.93;53.19
78337;BME280;67610;51.588;7.002;2023-03-01T00:26:00;102316.59;;;1.93;53.08
78337;BME280;67610;51.588;7.002;2023-03-01T00:28:26;102307.06;;;1.93;53.17
78337;BME280;67610;51.588;7.002;2023-03-01T00:30:51;102314.94;;;1.90;53.08
78337;BME280;67610;51.588;7.002;2023-03-01T00:33:17;102314.94;;;1.90;53.13
78337;BME280;67610;51.588;7.002;2023-03-01T00:35:42;102308.88;;;1.91;53.02
78337;BME280;67610;51.588;7.002;2023-03-01T00:38:08;102307.16;;;1.90;53.07
78337;BME280;67610;51.588;7.002;2023-03-01T00:40:35;102301.25;;;1.87;53.06
78337;BME280;67610;51.588;7.002;2023-03-01T00:43:00;102299.47;;;1.87;53.29
78337;BME280;67610;51.588;7.002;2023-03-01T00:45:26;102294.28;;;1.87;53.38
78337;BME280;67610;51.588;7.002;2023-03-01T00:47:52;102287.50;;;1.85;53.04
78337;BME280;67610;51.588;7.002;2023-03-01T00:50:18;102291.75;;;1.86;53.21
78337;BME280;67610;51.588;7.002;2023-03-01T00:52:44;102282.41;;;1.82;53.47
78337;BME280;67610;51.588;7.002;2023-03-01T00:55:10;102284.16;;;1.81;53.08
78337;BME280;67610;51.588;7.002;2023-03-01T00:57:37;102284.25;;;1.78;53.63
78337;BME280;67610;51.588;7.002;2023-03-01T01:00:05;102286.06;;;1.76;53.83
78337;BME280;67610;51.588;7.002;2023-03-01T01:02:33;102277.41;;;1.76;53.36
78337;BME280;67610;51.588;7.002;2023-03-01T01:04:59;102274.84;;;1.76;53.60
78337;BME280;67610;51.588;7.002;2023-03-01T01:07:24;102282.69;;;1.74;53.50
78337;BME280;67610;51.588;7.002;2023-03-01T01:09:50;102275.84;;;1.72;53.64
78337;BME280;67610;51.588;7.002;2023-03-01T01:12:15;102281.19;;;1.67;53.85
78337;BME280;67610;51.588;7.002;2023-03-01T01:14:40;102271.69;;;1.68;53.63
78337;BME280;67610;51.588;7.002;2023-03-01T01:17:06;102270.81;;;1.67;53.82
78337;BME280;67610;51.588;7.002;2023-03-01T01:19:31;102269.03;;;1.69;53.91
78337;BME280;67610;51.588;7.002;2023-03-01T01:21:57;102267.38;;;1.67;53.75
78337;BME280;67610;51.588;7.002;2023-03-01T01:24:22;102264.06;;;1.63;53.92
78337;BME280;67610;51.588;7.002;2023-03-01T01:26:48;102261.53;;;1.62;53.83
78337;BME280;67610;51.588;7.002;2023-03-01T01:29:13;102254.72;;;1.59;53.80
78337;BME280;67610;51.588;7.002;2023-03-01T01:31:40;102253.00;;;1.58;53.83
78337;BME280;67610;51.588;7.002;2023-03-01T01:34:09;102246.25;;;1.54;53.64
78337;BME280;67610;51.588;7.002;2023-03-01T01:36:37;102242.88;;;1.52;53.79
78337;BME280;67610;51.588;7.002;2023-03-01T01:39:03;102240.38;;;1.49;54.01
78337;BME280;67610;51.588;7.002;2023-03-01T01:41:29;102233.56;;;1.47;54.09
78337;BME280;67610;51.588;7.002;2023-03-01T01:44:15;102235.47;;;1.41;54.50
78337;BME280;67610;51.588;7.002;2023-03-01T01:47:11;102226.03;;;1.39;54.28
78337;BME280;67610;51.588;7.002;2023-03-01T01:49:51;102237.31;;;1.38;54.30
78337;BME280;67610;51.588;7.002;2023-03-01T01:52:32;102245.09;;;1.38;54.42
78337;BME280;67610;51.588;7.002;2023-03-01T01:57:38;102245.28;;;1.32;54.37
78337;BME280;67610;51.588;7.002;2023-03-01T02:00:11;102241.13;;;1.28;54.36
78337;BME280;67610;51.588;7.002;2023-03-01T02:02:38;102239.44;;;1.27;54.44
78337;BME280;67610;51.588;7.002;2023-03-01T02:05:26;102229.97;;;1.26;54.64
78337;BME280;67610;51.588;7.002;2023-03-01T02:07:54;102229.13;;;1.25;54.71
78337;BME280;67610;51.588;7.002;2023-03-01T02:10:22;102231.84;;;1.22;54.66
78337;BME280;67610;51.588;7.002;2023-03-01T02:12:48;102225.81;;;1.22;54.53
78337;BME280;67610;51.588;7.002;2023-03-01T02:15:14;102213.72;;;1.21;54.78
78337;BME280;67610;51.588;7.002;2023-03-01T02:17:40;102215.53;;;1.19;54.71
78337;BME280;67610;51.588;7.002;2023-03-01T02:20:33;102218.19;;;1.17;55.12
78337;BME280;67610;51.588;7.002;2023-03-01T02:22:59;102214.84;;;1.14;54.89
78337;BME280;67610;51.588;7.002;2023-03-01T02:30:46;102207.28;;;1.08;55.07
78337;BME280;67610;51.588;7.002;2023-03-01T02:33:48;102208.09;;;1.10;55.11
78337;BME280;67610;51.588;7.002;2023-03-01T02:36:26;102214.13;;;1.10;55.11
78337;BME280;67610;51.588;7.002;2023-03-01T02:38:58;102222.91;;;1.06;55.37
78337;BME280;67610;51.588;7.002;2023-03-01T02:41:28;102208.25;;;1.05;55.34
78337;BME280;67610;51.588;7.002;2023-03-01T02:43:55;102216.81;;;1.07;55.29
78337;BME280;67610;51.588;7.002;2023-03-01T02:46:23;102213.25;;;1.10;54.91
78337;BME280;67610;51.588;7.002;2023-03-01T02:48:56;102220.25;;;1.08;55.09
78337;BME280;67610;51.588;7.002;2023-03-01T02:51:24;102214.28;;;1.06;55.37
78337;BME280;67610;51.588;7.002;2023-03-01T02:53:56;102218.53;;;1.07;55.25
78337;BME280;67610;51.588;7.002;2023-03-01T02:56:25;102221.97;;;1.07;55.17
78337;BME280;67610;51.588;7.002;2023-03-01T02:58:51;102213.50;;;1.02;55.34
78337;BME280;67610;51.588;7.002;2023-03-01T03:01:18;102214.47;;;1.00;55.41
78337;BME280;67610;51.588;7.002;2023-03-01T03:03:44;102210.19;;;0.99;55.27
78337;BME280;67610;51.588;7.002;2023-03-01T03:06:09;102209.41;;;0.97;55.39
78337;BME280;67610;51.588;7.002;2023-03-01T03:08:35;102212.09;;;0.94;55.53
78337;BME280;67610;51.588;7.002;2023-03-01T03:11:01;102219.00;;;0.93;55.31
78337;BME280;67610;51.588;7.002;2023-03-01T03:13:26;102210.44;;;0.91;55.36
78337;BME280;67610;51.588;7.002;2023-03-01T03:15:55;102207.94;;;0.90;55.54
78337;BME280;67610;51.588;7.002;2023-03-01T03:18:21;102205.50;;;0.85;55.49
78337;BME280;67610;51.588;7.002;2023-03-01T03:20:47;102211.56;;;0.84;55.51
78337;BME280;67610;51.588;7.002;2023-03-01T03:23:18;102203.00;;;0.82;55.76
78337;BME280;67610;51.588;7.002;2023-03-01T03:25:44;102198.81;;;0.78;55.70
78337;BME280;67610;51.588;7.002;2023-03-01T03:28:09;102198.84;;;0.77;55.79
78337;BME280;67610;51.588;7.002;2023-03-01T03:30:37;102199.78;;;0.76;55.87
78337;BME280;67610;51.588;7.002;2023-03-01T03:33:05;102201.59;;;0.72;55.85
78337;BME280;67610;51.588;7.002;2023-03-01T03:35:34;102203.38;;;0.72;55.87
78337;BME280;67610;51.588;7.002;2023-03-01T03:38:06;102204.25;;;0.70;55.95
78337;BME280;67610;51.588;7.002;2023-03-01T03:40:38;102199.06;;;0.70;55.90
78337;BME280;67610;51.588;7.002;2023-03-01T03:43:10;102191.38;;;0.67;56.19
78337;BME280;67610;51.588;7.002;2023-03-01T03:45:36;102199.16;;;0.67;55.80
78337;BME280;67610;51.588;7.002;2023-03-01T03:48:03;102189.66;;;0.68;55.72
78337;BME280;67610;51.588;7.002;2023-03-01T03:50:29;102192.19;;;0.69;55.87
78337;BME280;67610;51.588;7.002;2023-03-01T03:52:54;102182.81;;;0.67;55.83
78337;BME280;67610;51.588;7.002;2023-03-01T03:55:20;102179.38;;;0.65;55.80
78337;BME280;67610;51.588;7.002;2023-03-01T03:57:47;102176.06;;;0.61;55.51
78337;BME280;67610;51.588;7.002;2023-03-01T04:00:18;102186.44;;;0.61;56.19
78337;BME280;67610;51.588;7.002;2023-03-01T04:02:45;102177.03;;;0.59;56.37
78337;BME280;67610;51.588;7.002;2023-03-01T04:05:14;102179.66;;;0.57;56.02
78337;BME280;67610;51.588;7.002;2023-03-01T04:07:41;102169.41;;;0.54;55.99
78337;BME280;67610;51.588;7.002;2023-03-01T04:10:09;102172.84;;;0.55;56.18
78337;BME280;67610;51.588;7.002;2023-03-01T04:12:35;102164.13;;;0.57;56.29
78337;BME280;67610;51.588;7.002;2023-03-01T04:15:05;102166.66;;;0.59;56.15
78337;BME280;67610;51.588;7.002;2023-03-01T04:17:40;102160.63;;;0.58;56.13
78337;BME280;67610;51.588;7.002;2023-03-01T04:20:08;102169.31;;;0.57;56.04
78337;BME280;67610;51.588;7.002;2023-03-01T04:22:34;102173.72;;;0.54;55.95
78337;BME280;67610;51.588;7.002;2023-03-01T04:25:00;102172.88;;;0.53;56.25
78337;BME280;67610;51.588;7.002;2023-03-01T04:27:27;102165.22;;;0.50;56.63
78337;BME280;67610;51.588;7.002;2023-03-01T04:29:52;102172.22;;;0.48;56.57
78337;BME280;67610;51.588;7.002;2023-03-01T04:32:17;102172.22;;;0.48;56.29
78337;BME280;67610;51.588;7.002;2023-03-01T04:34:43;102164.44;;;0.48;56.41
78337;BME280;67610;51.588;7.002;2023-03-01T04:37:09;102165.47;;;0.43;56.63
78337;BME280;67610;51.588;7.002;2023-03-01T04:39:34;102170.56;;;0.46;56.34
78337;BME280;67610;51.588;7.002;2023-03-01T04:42:11;102167.22;;;0.42;56.63
78337;BME280;67610;51.588;7.002;2023-03-01T04:44:37;102167.28;;;0.41;56.48
78337;BME280;67610;51.588;7.002;2023-03-01T04:47:02;102169.72;;;0.45;56.44
78337;BME280;67610;51.588;7.002;2023-03-01T04:49:28;102162.88;;;0.43;56.53
78337;BME280;67610;51.588;7.002;2023-03-01T04:51:53;102162.09;;;0.41;56.80
78337;BME280;67610;51.588;7.002;2023-03-01T04:54:18;102158.59;;;0.42;56.69
78337;BME280;67610;51.588;7.002;2023-03-01T04:56:44;102150.88;;;0.40;56.56
78337;BME280;67610;51.588;7.002;2023-03-01T04:59:10;102150.97;;;0.37;56.97
78337;BME280;67610;51.588;7.002;2023-03-01T05:01:38;102154.50;;;0.35;56.96
78337;BME280;67610;51.588;7.002;2023-03-01T05:04:04;102151.91;;;0.35;56.63
78337;BME280;67610;51.588;7.002;2023-03-01T05:06:31;102154.47;;;0.36;56.83
78337;BME280;67610;51.588;7.002;2023-03-01T05:08:56;102153.72;;;0.33;56.88
78337;BME280;67610;51.588;7.002;2023-03-01T05:11:22;102152.78;;;0.35;57.01
78337;BME280;67610;51.588;7.002;2023-03-01T05:13:47;102149.41;;;0.33;57.09
78337;BME280;67610;51.588;7.002;2023-03-01T05:16:15;102152.97;;;0.29;57.53
78337;BME280;67610;51.588;7.002;2023-03-01T05:18:42;102149.47;;;0.30;57.12
78337;BME280;67610;51.588;7.002;2023-03-01T05:21:13;102140.91;;;0.30;57.29
78337;BME280;67610;51.588;7.002;2023-03-01T05:23:41;102140.03;;;0.29;57.52
78337;BME280;67610;51.588;7.002;2023-03-01T05:26:07;102138.31;;;0.30;57.65
78337;BME280;67610;51.588;7.002;2023-03-01T05:28:33;102140.94;;;0.28;57.49
78337;BME280;67610;51.588;7.002;2023-03-01T05:30:59;102141.94;;;0.24;57.91
78337;BME280;67610;51.588;7.002;2023-03-01T05:33:25;102148.03;;;0.22;57.97
78337;BME280;67610;51.588;7.002;2023-03-01T05:35:51;102146.31;;;0.22;57.95
78337;BME280;67610;51.588;7.002;2023-03-01T05:38:18;102142.94;;;0.20;57.80
78337;BME280;67610;51.588;7.002;2023-03-01T05:40:44;102138.63;;;0.19;57.88
78337;BME280;67610;51.588;7.002;2023-03-01T05:43:12;102140.63;;;0.11;58.58
78337;BME280;67610;51.588;7.002;2023-03-01T05:45:38;102142.16;;;0.17;58.25
78337;BME280;67610;51.588;7.002;2023-03-01T05:48:05;102139.56;;;0.17;58.56
78337;BME280;67610;51.588;7.002;2023-03-01T05:50:34;102136.16;;;0.16;58.13
78337;BME280;67610;51.588;7.002;2023-03-01T05:53:02;102142.16;;;0.17;58.22
78337;BME280;67610;51.588;7.002;2023-03-01T05:55:30;102138.63;;;0.19;58.30
78337;BME280;67610;51.588;7.002;2023-03-01T05:58:05;102144.72;;;0.18;58.25
78337;BME280;67610;51.588;7.002;2023-03-01T06:00:31;102144.53;;;0.24;58.08
78337;BME280;67610;51.588;7.002;2023-03-01T06:02:58;102136.91;;;0.20;58.23
78337;BME280;67610;51.588;7.002;2023-03-01T06:05:24;102140.44;;;0.17;58.20
78337;BME280;67610;51.588;7.002;2023-03-01T06:07:50;102135.16;;;0.20;58.23
78337;BME280;67610;51.588;7.002;2023-03-01T06:10:16;102141.22;;;0.19;58.50
78337;BME280;67610;51.588;7.002;2023-03-01T06:12:42;102133.44;;;0.21;58.35
78337;BME280;67610;51.588;7.002;2023-03-01T06:15:10;102129.22;;;0.18;58.39
78337;BME280;67610;51.588;7.002;2023-03-01T06:17:38;102127.41;;;0.20;58.56
78337;BME280;67610;51.588;7.002;2023-03-01T06:20:10;102127.50;;;0.17;59.02
78337;BME280;67610;51.588;7.002;2023-03-01T06:22:36;102130.16;;;0.16;58.88
78337;BME280;67610;51.588;7.002;2023-03-01T06:25:02;102119.44;;;0.26;58.57
78337;BME280;67610;51.588;7.002;2023-03-01T06:27:27;102122.94;;;0.25;58.59
78337;BME280;67610;51.588;7.002;2023-03-01T06:29:53;102126.47;;;0.23;58.79
78337;BME280;67610;51.588;7.002;2023-03-01T06:32:18;102124.69;;;0.23;58.56
78337;BME280;67610;51.588;7.002;2023-03-01T06:34:44;102116.00;;;0.26;58.55
78337;BME280;67610;51.588;7.002;2023-03-01T06:37:09;102119.41;;;0.28;58.62
78337;BME280;67610;51.588;7.002;2023-03-01T06:39:35;102120.00;;;0.36;58.58
78337;BME280;67610;51.588;7.002;2023-03-01T06:42:00;102119.09;;;0.37;58.37
78337;BME280;67610;51.588;7.002;2023-03-01T06:44:26;102113.00;;;0.39;58.43
78337;BME280;67610;51.588;7.002;2023-03-01T06:46:51;102123.34;;;0.39;58.88
78337;BME280;67610;51.588;7.002;2023-03-01T06:49:17;102125.72;;;0.45;58.38
78337;BME280;67610;51.588;7.002;2023-03-01T06:51:43;102126.41;;;0.50;58.26
78337;BME280;67610;51.588;7.002;2023-03-01T06:54:09;102121.00;;;0.56;58.30
78337;BME280;67610;51.588;7.002;2023-03-01T06:56:34;102125.00;;;0.66;58.22
78337;BME280;67610;51.588;7.002;2023-03-01T06:59:00;102122.78;;;0.81;58.17
78337;BME280;67610;51.588;7.002;2023-03-01T07:01:25;102130.16;;;0.91;57.96
78337;BME280;67610;51.588;7.002;2023-03-01T07:03:51;102125.97;;;1.12;57.52
78337;BME280;67610;51.588;7.002;2023-03-01T07:06:16;102127.09;;;1.28;57.14
78337;BME280;67610;51.588;7.002;2023-03-01T07:08:43;102123.88;;;1.45;57.26
78337;BME280;67610;51.588;7.002;2023-03-01T07:11:08;102127.53;;;1.62;56.35
78337;BME280;67610;51.588;7.002;2023-03-01T07:13:34;102133.72;;;1.81;55.87
78337;BME280;67610;51.588;7.002;2023-03-01T07:15:59;102133.84;;;2.00;55.44
78337;BME280;67610;51.588;7.002;2023-03-01T07:18:25;102135.78;;;2.17;54.77
78337;BME280;67610;51.588;7.002;2023-03-01T07:20:50;102131.56;;;2.34;54.39
78337;BME280;67610;51.588;7.002;2023-03-01T07:23:16;102121.66;;;2.44;53.82
78337;BME280;67610;51.588;7.002;2023-03-01T07:25:41;102118.56;;;2.56;53.42
78337;BME280;67610;51.588;7.002;2023-03-01T07:28:06;102120.84;;;2.63;53.18
78337;BME280;67610;51.588;7.002;2023-03-01T07:30:32;102119.03;;;2.65;52.96
78337;BME280;67610;51.588;7.002;2023-03-01T07:32:58;102119.59;;;2.72;52.90
78337;BME280;67610;51.588;7.002;2023-03-01T07:35:25;102117.06;;;2.70;52.35
78337;BME280;67610;51.588;7.002;2023-03-01T07:37:51;102115.19;;;2.74;52.45
78337;BME280;67610;51.588;7.002;2023-03-01T07:40:16;102114.97;;;2.78;52.63
78337;BME280;67610;51.588;7.002;2023-03-01T07:42:42;102111.28;;;2.84;52.05
78337;BME280;67610;51.588;7.002;2023-03-01T07:45:07;102113.81;;;2.86;51.97
78337;BME280;67610;51.588;7.002;2023-03-01T07:47:33;102110.13;;;2.91;51.84
78337;BME280;67610;51.588;7.002;2023-03-01T07:50:02;102114.50;;;2.89;51.47
78337;BME280;67610;51.588;7.002;2023-03-01T07:52:29;102113.63;;;2.90;51.75
78337;BME280;67610;51.588;7.002;2023-03-01T07:54:56;102106.66;;;2.91;52.05
78337;BME280;67610;51.588;7.002;2023-03-01T07:57:22;102122.63;;;3.02;51.71
78337;BME280;67610;51.588;7.002;2023-03-01T07:59:47;102118.97;;;3.06;51.70
78337;BME280;67610;51.588;7.002;2023-03-01T08:02:12;102116.91;;;3.14;51.95
78337;BME280;67610;51.588;7.002;2023-03-01T08:04:40;102115.94;;;3.35;51.72
78337;BME280;67610;51.588;7.002;2023-03-01T08:07:05;102119.59;;;3.49;51.04
78337;BME280;67610;51.588;7.002;2023-03-01T08:09:31;102116.94;;;3.70;50.64
78337;BME280;67610;51.588;7.002;2023-03-01T08:11:57;102119.88;;;3.98;51.02
78337;BME280;67610;51.588;7.002;2023-03-01T08:14:24;102115.13;;;4.24;49.38
78337;BME280;67610;51.588;7.002;2023-03-01T08:16:50;102122.63;;;4.65;48.25
78337;BME280;67610;51.588;7.002;2023-03-01T08:19:15;102117.69;;;4.93;48.27
78337;BME280;67610;51.588;7.002;2023-03-01T08:21:41;102116.84;;;5.25;47.60
78337;BME280;67610;51.588;7.002;2023-03-01T08:24:07;102115.81;;;5.45;47.64
78337;BME280;67610;51.588;7.002;2023-03-01T08:26:33;102111.53;;;5.75;47.35
78337;BME280;67610;51.588;7.002;2023-03-01T08:28:59;102117.16;;;6.14;46.84
78337;BME280;67610;51.588;7.002;2023-03-01T08:31:36;102116.28;;;6.59;45.81
78337;BME280;67610;51.588;7.002;2023-03-01T08:34:07;102108.22;;;6.92;45.52
78337;BME280;67610;51.588;7.002;2023-03-01T08:36:37;102104.69;;;7.21;43.72
78337;BME280;67610;51.588;7.002;2023-03-01T08:39:04;102099.41;;;7.49;42.81
78337;BME280;67610;51.588;7.002;2023-03-01T08:41:30;102098.91;;;7.71;42.60
78337;BME280;67610;51.588;7.002;2023-03-01T08:43:55;102097.84;;;8.00;42.68
78337;BME280;67610;51.588;7.002;2023-03-01T08:46:25;102108.19;;;8.30;42.29
78337;BME280;67610;51.588;7.002;2023-03-01T08:48:51;102103.19;;;8.52;41.72
78337;BME280;67610;51.588;7.002;2023-03-01T08:51:18;102101.09;;;8.70;41.22
78337;BME280;67610;51.588;7.002;2023-03-01T08:53:44;102103.13;;;8.91;40.60
78337;BME280;67610;51.588;7.002;2023-03-01T08:56:10;102093.66;;;9.14;40.26
78337;BME280;67610;51.588;7.002;2023-03-01T08:58:36;102105.72;;;9.29;39.43
78337;BME280;67610;51.588;7.002;2023-03-01T09:01:07;102096.03;;;9.30;39.29
78337;BME280;67610;51.588;7.002;2023-03-01T09:03:33;102093.28;;;9.44;38.24
78337;BME280;67610;51.588;7.002;2023-03-01T09:06:03;102087.59;;;9.50;38.71
78337;BME280;67610;51.588;7.002;2023-03-01T09:08:29;102084.44;;;9.57;37.84
78337;BME280;67610;51.588;7.002;2023-03-01T09:10:55;102087.84;;;9.70;37.59
78337;BME280;67610;51.588;7.002;2023-03-01T09:13:21;102088.25;;;9.77;37.85
78337;BME280;67610;51.588;7.002;2023-03-01T09:15:48;102086.22;;;9.80;36.32
78337;BME280;67610;51.588;7.002;2023-03-01T09:18:14;102076.13;;;9.63;36.15
78337;BME280;67610;51.588;7.002;2023-03-01T09:20:39;102083.28;;;9.49;36.34
78337;BME280;67610;51.588;7.002;2023-03-01T09:23:05;102078.56;;;9.41;36.80
78337;BME280;67610;51.588;7.002;2023-03-01T09:25:30;102076.06;;;9.40;36.59
78337;BME280;67610;51.588;7.002;2023-03-01T09:27:55;102080.00;;;9.22;36.79
78337;BME280;67610;51.588;7.002;2023-03-01T09:30:21;102070.66;;;9.18;37.63
78337;BME280;67610;51.588;7.002;2023-03-01T09:32:46;102070.66;;;9.18;37.69
78337;BME280;67610;51.588;7.002;2023-03-01T09:35:12;102068.31;;;9.26;36.61
78337;BME280;67610;51.588;7.002;2023-03-01T09:37:38;102072.31;;;9.19;36.37
78337;BME280;67610;51.588;7.002;2023-03-01T09:40:06;102073.25;;;9.30;36.36
78337;BME280;67610;51.588;7.002;2023-03-01T09:42:35;102067.91;;;9.32;36.58
78337;BME280;67610;51.588;7.002;2023-03-01T09:45:23;102061.44;;;9.48;35.43
78337;BME280;67610;51.588;7.002;2023-03-01T09:47:50;102059.50;;;9.63;36.00
78337;BME280;67610;51.588;7.002;2023-03-01T09:50:18;102065.16;;;9.69;35.30
78337;BME280;67610;51.588;7.002;2023-03-01T09:55:39;102053.09;;;9.91;34.35
78337;BME280;67610;51.588;7.002;2023-03-01T09:58:31;102058.16;;;10.05;34.82
78337;BME280;67610;51.588;7.002;2023-03-01T10:01:10;102052.41;;;10.23;34.36
78337;BME280;67610;51.588;7.002;2023-03-01T10:04:09;102051.03;;;10.41;34.22
78337;BME280;67610;51.588;7.002;2023-03-01T10:06:40;102058.56;;;10.46;32.88
78337;BME280;67610;51.588;7.002;2023-03-01T10:09:16;102044.06;;;10.29;32.51
78337;BME280;67610;51.588;7.002;2023-03-01T10:11:49;102054.16;;;10.46;32.91
78337;BME280;67610;51.588;7.002;2023-03-01T10:14:43;102056.28;;;10.41;32.36
78337;BME280;67610;51.588;7.002;2023-03-01T10:19:44;102041.25;;;10.54;32.22
78337;BME280;67610;51.588;7.002;2023-03-01T10:22:24;102034.19;;;10.66;32.50
78337;BME280;67610;51.588;7.002;2023-03-01T10:24:54;102030.75;;;10.77;31.86
78337;BME280;67610;51.588;7.002;2023-03-01T10:27:26;102022.38;;;10.72;31.67
78337;BME280;67610;51.588;7.002;2023-03-01T10:30:04;102018.53;;;10.76;31.61
78337;BME280;67610;51.588;7.002;2023-03-01T10:32:31;102019.16;;;10.68;32.17
78337;BME280;67610;51.588;7.002;2023-03-01T10:34:56;102020.72;;;10.71;32.38
78337;BME280;67610;51.588;7.002;2023-03-01T10:37:22;102020.59;;;10.94;31.95
78337;BME280;67610;51.588;7.002;2023-03-01T10:40:09;102014.22;;;11.08;32.16
78337;BME280;67610;51.588;7.002;2023-03-01T10:42:39;102024.50;;;11.22;31.05
78337;BME280;67610;51.588;7.002;2023-03-01T10:48:09;102010.53;;;11.10;30.81
78337;BME280;67610;51.588;7.002;2023-03-01T10:50:37;102019.50;;;11.08;30.99
78337;BME280;67610;51.588;7.002;2023-03-01T10:53:05;102001.19;;;11.06;31.00
78337;BME280;67610;51.588;7.002;2023-03-01T10:55:41;102013.41;;;11.07;31.25
78337;BME280;67610;51.588;7.002;2023-03-01T10:58:19;102007.53;;;11.04;30.83
78337;BME280;67610;51.588;7.002;2023-03-01T11:00:57;101994.84;;;11.09;31.16
78337;BME280;67610;51.588;7.002;2023-03-01T11:03:29;101999.72;;;11.24;31.39
78337;BME280;67610;51.588;7.002;2023-03-01T11:05:59;101993.63;;;11.24;31.40
78337;BME280;67610;51.588;7.002;2023-03-01T11:08:45;102000.13;;;11.09;30.96
78337;BME280;67610;51.588;7.002;2023-03-01T11:11:24;101984.81;;;11.03;31.39
78337;BME280;67610;51.588;7.002;2023-03-01T11:14:13;101979.78;;;11.00;31.12
78337;BME280;67610;51.588;7.002;2023-03-01T11:16:42;101975.47;;;10.99;31.67
78337;BME280;67610;51.588;7.002;2023-03-01T11:21:36;101979.47;;;10.82;30.84
78337;BME280;67610;51.588;7.002;2023-03-01T11:24:04;101966.16;;;10.62;31.29
78337;BME280;67610;51.588;7.002;2023-03-01T11:26:34;101964.94;;;10.43;31.51
78337;BME280;67610;51.588;7.002;2023-03-01T11:29:04;101965.06;;;10.31;31.79
78337;BME280;67610;51.588;7.002;2023-03-01T11:31:31;101963.75;;;10.02;32.11
78337;BME280;67610;51.588;7.002;2023-03-01T11:34:10;101960.03;;;9.93;32.10
78337;BME280;67610;51.588;7.002;2023-03-01T11:41:51;101952.81;;;9.26;33.06
78337;BME280;67610;51.588;7.002;2023-03-01T11:44:23;101956.88;;;9.06;33.83
78337;BME280;67610;51.588;7.002;2023-03-01T11:47:17;101960.44;;;9.05;34.22
78337;BME280;67610;51.588;7.002;2023-03-01T11:49:53;101960.63;;;8.78;34.39
78337;BME280;67610;51.588;7.002;2023-03-01T11:52:31;101955.50;;;8.64;34.90
78337;BME280;67610;51.588;7.002;2023-03-01T12:14:13;101946.88;;;8.24;35.88
78337;BME280;67610;51.588;7.002;2023-03-01T12:20:08;101941.34;;;8.29;35.97
78337;BME280;67610;51.588;7.002;2023-03-01T12:22:59;101931.66;;;8.17;35.43
78337;BME280;67610;51.588;7.002;2023-03-01T12:28:15;101923.41;;;7.98;35.78
78337;BME280;67610;51.588;7.002;2023-03-01T12:38:41;101915.00;;;8.05;35.01
78337;BME280;67610;51.588;7.002;2023-03-01T12:41:21;101909.88;;;8.04;35.16
78337;BME280;67610;51.588;7.002;2023-03-01T12:46:59;101909.34;;;7.99;34.54
78337;BME280;67610;51.588;7.002;2023-03-01T12:49:41;101894.66;;;7.96;34.79
78337;BME280;67610;51.588;7.002;2023-03-01T12:52:55;101899.91;;;7.96;37.85
78337;BME280;67610;51.588;7.002;2023-03-01T12:55:01;101897.72;;;8.03;36.14
78337;BME280;67610;51.588;7.002;2023-03-01T12:57:32;101894.03;;;8.05;35.77
78337;BME280;67610;51.588;7.002;2023-03-01T13:02:41;101875.47;;;7.96;36.41
78337;BME280;67610;51.588;7.002;2023-03-01T13:05:33;101876.75;;;7.90;36.36
78337;BME280;67610;51.588;7.002;2023-03-01T13:08:23;101891.09;;;7.85;36.58
78337;BME280;67610;51.588;7.002;2023-03-01T13:11:03;101890.47;;;7.94;36.01
78337;BME280;67610;51.588;7.002;2023-03-01T13:13:29;101873.81;;;7.95;35.92
78337;BME280;67610;51.588;7.002;2023-03-01T13:15:56;101878.41;;;7.91;36.26
78337;BME280;67610;51.588;7.002;2023-03-01T13:20:55;101870.78;;;7.88;35.74
78337;BME280;67610;51.588;7.002;2023-03-01T13:23:24;101866.91;;;7.94;36.07
78337;BME280;67610;51.588;7.002;2023-03-01T13:26:08;101885.47;;;7.91;35.48
78337;BME280;67610;51.588;7.002;2023-03-01T13:33:54;101866.38;;;8.01;35.38
78337;BME280;67610;51.588;7.002;2023-03-01T13:44:26;101845.09;;;8.06;35.08
78337;BME280;67610;51.588;7.002;2023-03-01T13:49:36;101862.84;;;8.02;35.55
78337;BME280;67610;51.588;7.002;2023-03-01T13:52:06;101836.63;;;8.02;35.17
78337;BME280;67610;51.588;7.002;2023-03-01T13:54:32;101837.78;;;8.11;34.44
78337;BME280;67610;51.588;7.002;2023-03-01T13:57:00;101831.59;;;7.99;34.79
78337;BME280;67610;51.588;7.002;2023-03-01T13:59:27;101831.78;;;7.96;35.11
78337;BME280;67610;51.588;7.002;2023-03-01T14:01:59;101819.66;;;7.95;35.47
78337;BME280;67610;51.588;7.002;2023-03-01T14:04:31;101813.78;;;7.92;35.47
78337;BME280;67610;51.588;7.002;2023-03-01T14:09:43;101818.63;;;7.98;35.39
78337;BME280;67610;51.588;7.002;2023-03-01T14:15:20;101801.41;;;7.94;35.31
78337;BME280;67610;51.588;7.002;2023-03-01T14:18:27;101801.72;;;7.89;35.22
78337;BME280;67610;51.588;7.002;2023-03-01T14:20:57;101790.94;;;7.94;35.55
78337;BME280;67610;51.588;7.002;2023-03-01T14:23:23;101791.78;;;7.94;35.79
78337;BME280;67610;51.588;7.002;2023-03-01T14:25:50;101795.56;;;7.90;36.11
78337;BME280;67610;51.588;7.002;2023-03-01T14:28:19;101788.72;;;8.00;35.85
78337;BME280;67610;51.588;7.002;2023-03-01T14:30:47;101807.91;;;8.01;35.23
78337;BME280;67610;51.588;7.002;2023-03-01T14:33:26;101781.06;;;8.10;34.76
78337;BME280;67610;51.588;7.002;2023-03-01T14:38:39;101781.28;;;7.94;35.09
78337;BME280;67610;51.588;7.002;2023-03-01T14:41:13;101773.75;;;7.90;35.20
78337;BME280;67610;51.588;7.002;2023-03-01T14:43:46;101775.22;;;7.94;35.20